Time;durP1;ratioP1;P1;durP2;ratioP2;P2;SDS_P1;SDS_P2;PMS_P1;PMS_P2;Temp;Humidity;BMP_temperature;BMP_pressure;BME280_temperature;BME280_humidity;BME280_pressure;Samples;Min_cycle;Max_cycle;Signal;HPM_P1;HPM_P2
2020/12/15 00:00:08;;;;;;;80.05;39.90;;;;;;;1.89;80.64;101066.37;1707331;82;25414;-77
2020/12/15 00:02:37;;;;;;;82.07;38.80;;;;;;;1.87;80.71;101067.82;1733293;80;25847;-78
2020/12/15 00:05:05;;;;;;;82.27;40.38;;;;;;;1.89;80.79;101065.05;1668166;82;25844;-77
2020/12/15 00:07:32;;;;;;;81.00;40.55;;;;;;;1.90;80.89;101064.95;1683058;82;28425;-78
2020/12/15 00:10:00;;;;;;;84.17;40.43;;;;;;;1.93;80.97;101067.34;1695917;82;25841;-78
2020/12/15 00:12:27;;;;;;;85.47;41.40;;;;;;;1.95;81.03;101057.95;1657535;82;25840;-77
2020/12/15 00:14:54;;;;;;;79.92;39.48;;;;;;;1.96;81.12;101057.02;1668791;82;25832;-77
2020/12/15 00:17:22;;;;;;;88.27;43.02;;;;;;;1.94;81.08;101053.18;1691704;79;25808;-78
2020/12/15 00:19:49;;;;;;;81.72;40.73;;;;;;;1.99;81.14;101043.58;1698758;82;28218;-77
2020/12/15 00:22:17;;;;;;;88.62;44.50;;;;;;;1.97;81.11;101035.75;1736033;82;26246;-78
2020/12/15 00:24:45;;;;;;;83.72;41.40;;;;;;;1.99;81.15;101038.30;1683981;82;25786;-77
2020/12/15 00:27:13;;;;;;;84.65;40.40;;;;;;;2.00;81.16;101046.56;1696272;82;26307;-78
2020/12/15 00:29:40;;;;;;;80.50;40.80;;;;;;;2.01;81.17;101043.79;1688528;82;26038;-77
2020/12/15 00:32:09;;;;;;;90.40;44.85;;;;;;;2.01;81.16;101043.79;1717295;82;27546;-77
2020/12/15 00:34:37;;;;;;;91.82;42.35;;;;;;;2.02;81.24;101037.56;1678722;82;25871;-77
2020/12/15 00:37:06;;;;;;;84.40;42.90;;;;;;;2.03;81.16;101030.48;1687482;82;25811;-78
2020/12/15 00:39:33;;;;;;;83.22;39.18;;;;;;;2.01;81.25;101035.05;1701598;82;25904;-78
2020/12/15 00:42:01;;;;;;;90.55;45.12;;;;;;;1.99;81.27;101030.37;1715165;82;25778;-77
2020/12/15 00:44:28;;;;;;;82.08;42.10;;;;;;;1.97;81.17;101034.42;1674493;82;28428;-77
2020/12/15 00:46:57;;;;;;;81.53;42.48;;;;;;;1.95;81.24;101033.71;1668799;82;25979;-77
2020/12/15 00:49:24;;;;;;;84.15;41.88;;;;;;;1.93;81.25;101033.47;1694398;82;26338;-78
2020/12/15 00:51:52;;;;;;;82.60;40.35;;;;;;;1.95;81.38;101035.03;1712424;82;26118;-77
2020/12/15 00:54:19;;;;;;;75.55;39.45;;;;;;;1.98;81.38;101040.56;1678297;82;25894;-78
2020/12/15 00:56:47;;;;;;;78.83;39.80;;;;;;;1.99;81.36;101040.43;1694163;82;27545;-77
2020/12/15 00:59:15;;;;;;;77.27;41.25;;;;;;;1.98;81.32;101049.81;1662205;82;26455;-77
2020/12/15 01:01:43;;;;;;;67.37;32.55;;;;;;;1.97;81.39;101051.60;1697958;82;26466;-78
2020/12/15 01:04:10;;;;;;;62.45;31.57;;;;;;;1.95;81.35;101057.95;1700212;82;26176;-78
2020/12/15 01:06:38;;;;;;;66.17;33.75;;;;;;;1.91;81.28;101058.69;1689495;82;26487;-78
2020/12/15 01:09:07;;;;;;;62.67;32.30;;;;;;;1.89;81.34;101067.69;1668712;82;27151;-77
2020/12/15 01:11:34;;;;;;;63.35;33.60;;;;;;;1.91;81.49;101063.13;1717278;82;25769;-78
2020/12/15 01:14:03;;;;;;;57.45;30.88;;;;;;;1.93;81.44;101062.05;1671424;82;25825;-77
2020/12/15 01:16:32;;;;;;;58.75;29.80;;;;;;;1.92;81.38;101057.75;1699870;82;26127;-77
2020/12/15 01:18:59;;;;;;;51.80;26.23;;;;;;;1.93;81.33;101056.77;1718143;82;25766;-77
2020/12/15 01:21:30;;;;;;;53.83;29.72;;;;;;;1.91;81.19;101050.77;1696393;82;28433;-77
2020/12/15 01:23:59;;;;;;;55.03;30.05;;;;;;;1.88;81.27;101043.07;1674355;82;35020;-78
2020/12/15 01:26:29;;;;;;;49.48;26.20;;;;;;;1.87;81.39;101044.05;1696202;81;25823;-77
2020/12/15 01:28:56;;;;;;;49.70;25.75;;;;;;;1.93;81.37;101049.31;1715764;82;25943;-77
2020/12/15 01:31:29;;;;;;;53.45;27.32;;;;;;;1.92;81.33;101046.33;1722308;82;25771;-77
2020/12/15 01:34:13;;;;;;;53.05;28.05;;;;;;;1.93;81.28;101042.71;1696900;81;27544;-77
2020/12/15 01:36:58;;;;;;;52.50;28.60;;;;;;;1.98;81.31;101049.33;1829892;77;25741;-78
2020/12/15 01:39:27;;;;;;;49.55;27.60;;;;;;;1.94;81.29;101047.05;1758286;78;26174;-78
2020/12/15 01:42:07;;;;;;;56.42;27.55;;;;;;;1.95;81.27;101044.75;1785086;79;25750;-78
2020/12/15 01:44:33;;;;;;;49.38;27.00;;;;;;;1.90;81.35;101046.94;1759871;80;25753;-78
2020/12/15 01:47:01;;;;;;;52.95;28.25;;;;;;;1.90;81.38;101050.89;1705911;81;27308;-78
2020/12/15 01:49:30;;;;;;;53.40;26.35;;;;;;;1.89;81.37;101054.02;1756731;80;26626;-77
2020/12/15 01:52:00;;;;;;;56.58;29.63;;;;;;;1.92;81.51;101051.61;1745540;80;25743;-77
2020/12/15 01:54:29;;;;;;;56.70;30.32;;;;;;;1.97;81.55;101057.36;1738319;80;25873;-77
2020/12/15 01:56:57;;;;;;;55.08;28.23;;;;;;;1.99;81.51;101054.96;1752081;80;26550;-77
2020/12/15 01:59:43;;;;;;;59.27;36.83;;;;;;;2.06;81.36;101060.13;1769665;79;28149;-77
2020/12/15 02:02:11;;;;;;;53.28;29.75;;;;;;;2.20;80.81;101053.25;1731784;80;25960;-77
2020/12/15 02:04:40;;;;;;;49.42;26.68;;;;;;;2.14;80.92;101058.19;1733707;81;27237;-77
2020/12/15 02:07:08;;;;;;;53.02;28.27;;;;;;;2.10;81.08;101042.22;1762497;80;25819;-78
2020/12/15 02:09:36;;;;;;;54.27;29.77;;;;;;;2.09;81.15;101039.23;1703070;80;25747;-77
2020/12/15 02:12:13;;;;;;;53.02;27.30;;;;;;;2.03;81.08;101037.08;1745249;80;26455;-77
2020/12/15 02:14:44;;;;;;;46.95;26.68;;;;;;;2.01;81.19;101042.97;1762523;80;26474;-77
2020/12/15 02:17:14;;;;;;;52.17;27.15;;;;;;;2.02;81.25;101048.59;1742798;80;28419;-78
2020/12/15 02:20:07;;;;;;;44.83;25.82;;;;;;;2.04;81.42;101044.88;1731759;80;26407;-78
2020/12/15 02:22:37;;;;;;;50.50;27.17;;;;;;;2.07;81.36;101043.80;1737635;80;25830;-77
2020/12/15 02:25:09;;;;;;;55.58;29.70;;;;;;;2.08;81.37;101042.83;1729884;81;25953;-77
2020/12/15 02:27:37;;;;;;;59.80;30.70;;;;;;;2.09;81.32;101045.84;1754342;80;26512;-77
2020/12/15 02:30:07;;;;;;;50.98;26.65;;;;;;;2.05;81.04;101039.94;1723278;80;27534;-77
2020/12/15 02:32:36;;;;;;;52.83;27.15;;;;;;;1.99;81.13;101036.47;1740089;80;25855;-77
2020/12/15 02:35:05;;;;;;;55.25;26.35;;;;;;;1.98;81.18;101028.20;1730262;81;26499;-77
2020/12/15 02:37:32;;;;;;;52.08;25.90;;;;;;;1.95;81.20;101038.15;1758916;80;25799;-78
2020/12/15 02:40:04;;;;;;;49.30;25.62;;;;;;;1.95;81.28;101032.86;1729420;80;25781;-78
2020/12/15 02:42:56;;;;;;;57.93;34.53;;;;;;;1.98;81.29;101020.75;1812692;77;34945;-78
2020/12/15 02:45:25;;;;;;;49.95;28.32;;;;;;;2.14;80.81;101022.51;1782796;78;26138;-78
2020/12/15 02:47:54;;;;;;;50.48;28.10;;;;;;;2.07;80.92;101031.91;1802075;78;27377;-78
2020/12/15 02:50:25;;;;;;;49.00;25.48;;;;;;;2.03;81.08;101031.80;1796933;78;25765;-78
2020/12/15 02:52:54;;;;;;;47.67;25.60;;;;;;;1.96;81.10;101030.13;1776495;78;25727;-78
2020/12/15 02:55:23;;;;;;;54.30;27.95;;;;;;;1.95;81.17;101032.86;1774710;78;25970;-78
2020/12/15 02:57:51;;;;;;;50.48;26.75;;;;;;;1.93;81.28;101043.56;1722890;81;26526;-78
2020/12/15 03:00:21;;;;;;;49.25;25.60;;;;;;;1.92;81.34;101047.66;1740579;81;28324;-77
2020/12/15 03:02:48;;;;;;;47.78;24.85;;;;;;;1.91;81.37;101049.92;1699982;81;26129;-77
2020/12/15 03:05:17;;;;;;;54.67;28.12;;;;;;;1.88;81.34;101045.71;1752819;80;25761;-78
2020/12/15 03:07:45;;;;;;;50.78;26.42;;;;;;;1.87;81.47;101048.01;1708651;82;25875;-78
2020/12/15 03:10:13;;;;;;;51.10;27.05;;;;;;;1.87;81.59;101051.97;1744781;81;26070;-77
2020/12/15 03:12:42;;;;;;;52.95;26.33;;;;;;;1.91;81.63;101051.23;1720522;82;27762;-77
2020/12/15 03:15:11;;;;;;;46.77;25.37;;;;;;;1.91;81.56;101046.80;1695165;80;26171;-78
2020/12/15 03:17:38;;;;;;;45.98;24.77;;;;;;;1.95;81.69;101050.03;1755883;80;25826;-78
2020/12/15 03:20:07;;;;;;;44.67;24.25;;;;;;;1.95;81.54;101044.75;1752293;80;26401;-77
2020/12/15 03:22:36;;;;;;;45.92;23.42;;;;;;;1.91;81.51;101034.92;1739822;80;26359;-77
2020/12/15 03:25:05;;;;;;;49.35;26.60;;;;;;;1.89;81.50;101036.84;1732868;80;27552;-77
2020/12/15 03:27:34;;;;;;;49.35;24.63;;;;;;;1.89;81.54;101039.48;1741779;80;26354;-78
2020/12/15 03:30:03;;;;;;;45.55;22.52;;;;;;;1.88;81.57;101040.43;1767072;80;25941;-76
2020/12/15 03:32:31;;;;;;;47.15;24.80;;;;;;;1.87;81.53;101040.09;1739098;80;26471;-77
2020/12/15 03:35:00;;;;;;;43.85;22.73;;;;;;;1.87;81.63;101043.20;1730579;80;26160;-78
2020/12/15 03:37:28;;;;;;;44.50;23.57;;;;;;;1.86;81.58;101041.03;1757918;80;27545;-78
2020/12/15 03:39:57;;;;;;;48.65;26.02;;;;;;;1.83;81.54;101037.80;1716878;82;25977;-77
2020/12/15 03:42:26;;;;;;;48.13;25.20;;;;;;;1.79;81.59;101037.21;1718048;82;25910;-77
2020/12/15 03:44:54;;;;;;;46.58;25.82;;;;;;;1.78;81.60;101041.27;1730001;81;25798;-78
2020/12/15 03:47:21;;;;;;;44.65;21.75;;;;;;;1.76;81.73;101045.84;1695777;82;26586;-78
2020/12/15 03:49:49;;;;;;;41.95;22.52;;;;;;;1.76;81.71;101037.44;1713013;83;28414;-78
2020/12/15 03:52:17;;;;;;;38.35;21.07;;;;;;;1.74;81.73;101046.44;1683679;82;26404;-77
2020/12/15 03:54:49;;;;;;;55.00;25.35;;;;;;;1.70;81.76;101041.04;1681358;83;25886;-77
2020/12/15 03:57:20;;;;;;;43.55;22.60;;;;;;;1.66;81.76;101037.80;1709835;82;26952;-77
2020/12/15 03:59:52;;;;;;;49.42;23.87;;;;;;;1.63;81.85;101040.67;1719447;82;26289;-77
2020/12/15 04:02:20;;;;;;;53.63;26.07;;;;;;;1.63;81.95;101041.98;1692359;83;27559;-78
2020/12/15 04:04:48;;;;;;;47.78;23.47;;;;;;;1.63;82.03;101035.39;1729711;81;26516;-78
2020/12/15 04:07:17;;;;;;;52.65;25.40;;;;;;;1.66;82.06;101031.67;1692088;82;25942;-78
2020/12/15 04:09:46;;;;;;;73.12;38.55;;;;;;;1.66;82.00;101033.00;1687304;83;25894;-78
2020/12/15 04:12:14;;;;;;;56.37;31.00;;;;;;;1.66;82.00;101036.48;1694037;81;26095;-78
2020/12/15 04:14:42;;;;;;;61.00;29.42;;;;;;;1.64;82.04;101038.41;1710961;83;27608;-77
2020/12/15 04:17:10;;;;;;;46.70;24.77;;;;;;;1.61;81.99;101039.95;1678781;83;26125;-78
2020/12/15 04:19:38;;;;;;;45.75;24.15;;;;;;;1.59;82.04;101041.88;1725365;82;26486;-78
2020/12/15 04:22:06;;;;;;;49.35;22.80;;;;;;;1.61;82.15;101035.99;1682655;83;25860;-78
2020/12/15 04:24:36;;;;;;;47.00;24.23;;;;;;;1.63;82.17;101034.55;1697772;82;25779;-77
2020/12/15 04:27:04;;;;;;;53.13;26.65;;;;;;;1.63;82.14;101041.14;1773186;80;26964;-77
2020/12/15 04:29:33;;;;;;;55.35;27.05;;;;;;;1.64;82.13;101033.59;1771663;80;25821;-77
2020/12/15 04:32:02;;;;;;;51.50;25.68;;;;;;;1.60;82.07;101035.65;1722776;81;26342;-77
2020/12/15 04:34:30;;;;;;;49.38;25.25;;;;;;;1.60;82.10;101029.52;1748988;80;25731;-78
2020/12/15 04:36:58;;;;;;;49.85;25.48;;;;;;;1.62;82.16;101034.20;1767103;80;25730;-77
2020/12/15 04:39:27;;;;;;;45.43;23.15;;;;;;;1.60;82.12;101042.25;1773822;80;27531;-78
2020/12/15 04:41:57;;;;;;;47.70;22.07;;;;;;;1.58;82.13;101044.64;1735241;80;25848;-77
2020/12/15 04:44:25;;;;;;;46.50;22.45;;;;;;;1.58;82.14;101042.84;1743608;80;25816;-77
2020/12/15 04:47:14;;;;;;;44.00;22.07;;;;;;;1.59;82.18;101043.19;1724892;80;25847;-78
2020/12/15 04:50:06;;;;;;;45.52;22.80;;;;;;;1.58;82.09;101044.98;1768847;80;25686;-77
2020/12/15 04:52:59;;;;;;;49.85;24.65;;;;;;;1.60;82.17;101050.64;1774131;80;28441;-78
2020/12/15 04:55:46;;;;;;;47.08;23.22;;;;;;;1.57;82.16;101053.03;1769710;80;26077;-77
2020/12/15 04:58:21;;;;;;;44.23;23.85;;;;;;;1.55;82.07;101056.27;1750299;80;25869;-77
2020/12/15 05:00:50;;;;;;;56.77;25.62;;;;;;;1.52;82.10;101057.81;1772398;80;25926;-77
2020/12/15 05:03:37;;;;;;;57.17;26.62;;;;;;;1.53;82.21;101066.11;1742923;80;26406;-78
2020/12/15 05:06:06;;;;;;;;;;;;;;;1.52;82.21;101058.66;1698529;83;27549;-77
2020/12/15 05:08:37;;;;;;;47.58;21.07;;;;;;;1.50;82.28;101059.27;1727920;82;25816;-77
2020/12/15 05:11:06;;;;;;;51.88;24.60;;;;;;;1.50;82.36;101058.41;1735572;82;25734;-77
2020/12/15 05:13:41;;;;;;;52.70;24.63;;;;;;;1.49;82.35;101059.39;1681833;82;25785;-78
2020/12/15 05:16:10;;;;;;;51.80;23.75;;;;;;;1.50;82.34;101057.09;1707615;82;25778;-77
2020/12/15 05:18:42;;;;;;;47.38;23.35;;;;;;;1.47;82.32;101054.70;1710307;82;28333;-77
2020/12/15 05:21:15;;;;;;;43.28;21.42;;;;;;;1.46;82.37;101050.37;1729742;82;25760;-78
2020/12/15 05:23:51;;;;;;;48.00;24.47;;;;;;;1.44;82.37;101050.50;1738222;81;25691;-78
2020/12/15 05:26:26;;;;;;;47.13;24.10;;;;;;;1.42;82.40;101044.50;1725881;82;25808;-78
2020/12/15 05:29:07;;;;;;;51.90;25.23;;;;;;;1.40;82.39;101043.78;1659314;83;26394;-77
2020/12/15 05:31:41;;;;;;;48.10;25.35;;;;;;;1.36;82.40;101035.73;1713160;81;28445;-77
2020/12/15 05:34:26;;;;;;;46.37;23.45;;;;;;;1.41;82.42;101038.03;1797974;79;26325;-78
2020/12/15 05:36:59;;;;;;;54.00;26.00;;;;;;;1.33;82.53;101045.67;1656356;84;25874;-77
2020/12/15 05:39:36;;;;;;;50.90;25.88;;;;;;;1.37;82.60;101045.79;1785810;79;25747;-77
2020/12/15 05:42:08;;;;;;;47.55;24.35;;;;;;;1.34;82.69;101049.53;1755500;80;25777;-78
2020/12/15 05:44:38;;;;;;;57.50;26.95;;;;;;;1.32;82.57;101047.96;1737970;80;26477;-77
2020/12/15 05:47:09;;;;;;;47.27;24.63;;;;;;;1.31;82.68;101057.67;1737186;80;25757;-77
2020/12/15 05:49:41;;;;;;;;;;;;;;;1.29;82.67;101053.45;1720249;81;26196;-78
2020/12/15 05:52:10;;;;;;;48.65;23.47;;;;;;;1.24;82.77;101049.84;1728734;81;26229;-77
2020/12/15 05:54:37;;;;;;;49.10;23.83;;;;;;;1.25;82.97;101052.02;1737921;81;25732;-77
2020/12/15 05:57:07;;;;;;;56.98;24.98;;;;;;;1.27;82.94;101039.54;1718779;81;27550;-78
2020/12/15 05:59:35;;;;;;;53.13;25.57;;;;;;;1.30;82.97;101052.05;1708959;81;25823;-78
2020/12/15 06:02:07;;;;;;;57.33;28.00;;;;;;;1.33;82.92;101049.63;1704674;81;25978;-78
2020/12/15 06:04:37;;;;;;;60.90;28.60;;;;;;;1.34;82.96;101046.05;1710128;81;25802;-77
2020/12/15 06:07:07;;;;;;;48.45;24.12;;;;;;;1.34;82.89;101050.00;1734992;81;26095;-77
2020/12/15 06:09:35;;;;;;;53.75;24.32;;;;;;;1.36;82.98;101056.85;1696423;81;27623;-78
2020/12/15 06:12:05;;;;;;;58.95;27.13;;;;;;;1.36;83.01;101059.95;1709290;81;25924;-77
2020/12/15 06:14:33;;;;;;;56.40;25.83;;;;;;;1.33;82.86;101061.50;1709912;81;26496;-78
2020/12/15 06:17:00;;;;;;;59.60;25.65;;;;;;;1.32;82.86;101055.41;1694376;81;26176;-81
2020/12/15 06:19:30;;;;;;;53.98;25.70;;;;;;;1.33;82.94;101054.43;1709616;81;25981;-80
2020/12/15 06:21:59;;;;;;;57.40;27.48;;;;;;;1.33;82.91;101060.18;1739678;81;27534;-79
2020/12/15 06:24:40;;;;;;;64.35;26.80;;;;;;;1.35;83.03;101068.34;1684111;81;26055;-80
2020/12/15 06:27:09;;;;;;;;;;;;;;;1.37;83.00;101063.80;1707479;81;25831;-79
2020/12/15 06:29:39;;;;;;;53.15;24.57;;;;;;;1.36;82.98;101070.52;1692601;81;25928;-79
2020/12/15 06:32:19;;;;;;;68.20;32.58;;;;;;;1.37;83.16;101073.50;1707093;81;26475;-79
2020/12/15 06:34:48;;;;;;;61.50;27.02;;;;;;;1.39;83.11;101076.39;1712085;81;27735;-80
2020/12/15 06:37:18;;;;;;;56.70;25.90;;;;;;;1.41;83.12;101079.75;1693651;81;26094;-80
2020/12/15 06:39:56;;;;;;;61.20;28.30;;;;;;;1.44;83.08;101082.17;1699016;82;25395;-79
2020/12/15 06:42:32;;;;;;;69.12;34.38;;;;;;;1.48;82.88;101074.37;1813278;77;28004;-77
2020/12/15 06:45:09;;;;;;;66.33;30.77;;;;;;;1.60;82.37;101079.21;1749944;79;26177;-78
2020/12/15 06:47:37;;;;;;;62.05;29.35;;;;;;;1.54;82.63;101080.98;1741105;80;28268;-77
2020/12/15 06:50:18;;;;;;;62.23;26.35;;;;;;;1.51;82.86;101074.16;1782452;80;26008;-76
2020/12/15 06:52:46;;;;;;;54.58;24.80;;;;;;;1.51;82.90;101077.27;1689160;83;25392;-77
2020/12/15 06:55:14;;;;;;;58.08;26.25;;;;;;;1.49;83.00;101079.19;1674300;83;26445;-77
2020/12/15 06:57:41;;;;;;;65.45;27.50;;;;;;;1.46;83.03;101082.89;1699262;82;25482;-77
2020/12/15 07:00:12;;;;;;;61.45;25.70;;;;;;;1.46;83.06;101081.58;1712977;81;28394;-77
2020/12/15 07:02:44;;;;;;;60.40;25.68;;;;;;;1.46;83.08;101076.77;1678066;82;25994;-77
2020/12/15 07:05:25;;;;;;;61.60;24.90;;;;;;;1.44;83.02;101083.49;1698437;81;25850;-76
2020/12/15 07:07:54;;;;;;;;;;;;;;;1.43;83.04;101082.30;1688856;82;25917;-78
2020/12/15 07:10:25;;;;;;;64.97;23.75;;;;;;;1.42;83.13;101077.49;1703523;83;25929;-76
2020/12/15 07:12:54;;;;;;;63.00;25.48;;;;;;;1.42;83.25;101080.60;1728637;82;27542;-77
2020/12/15 07:15:22;;;;;;;57.27;26.65;;;;;;;1.44;83.18;101084.81;1712455;82;26087;-77
2020/12/15 07:17:53;;;;;;;60.08;25.62;;;;;;;1.41;83.07;101079.75;1717053;82;25848;-77
2020/12/15 07:20:23;;;;;;;60.05;23.27;;;;;;;1.41;83.05;101085.53;1679019;82;25834;-77
2020/12/15 07:22:52;;;;;;;54.45;24.98;;;;;;;1.40;83.10;101087.80;1670836;83;25883;-78
2020/12/15 07:25:21;;;;;;;60.12;24.60;;;;;;;1.36;83.04;101094.27;1696074;83;28436;-78
2020/12/15 07:27:49;;;;;;;61.53;25.27;;;;;;;1.35;83.11;101096.53;1744808;81;25898;-77
2020/12/15 07:30:20;;;;;;;62.05;25.45;;;;;;;1.31;83.11;101099.89;1690243;81;25941;-77
2020/12/15 07:32:49;;;;;;;60.12;24.87;;;;;;;1.31;83.32;101097.25;1715536;83;25705;-77
2020/12/15 07:35:24;;;;;;;62.88;23.85;;;;;;;1.34;83.33;101096.19;1713795;81;25945;-78
2020/12/15 07:37:59;;;;;;;58.78;24.10;;;;;;;1.30;83.22;101094.27;1690549;82;27408;-77
2020/12/15 07:40:30;;;;;;;51.23;22.62;;;;;;;1.29;83.27;101099.64;1662044;83;26020;-77
2020/12/15 07:43:02;;;;;;;60.08;26.68;;;;;;;1.31;83.26;101095.09;1727688;81;25804;-78
2020/12/15 07:45:34;;;;;;;63.23;27.22;;;;;;;1.26;83.19;101095.93;1723355;81;25817;-78
2020/12/15 07:48:07;;;;;;;;;;;;;;;1.25;83.40;101094.23;1706608;82;25871;-78
2020/12/15 07:50:36;;;;;;;52.38;22.15;;;;;;;1.24;83.44;101093.89;1688721;83;28549;-77
2020/12/15 07:53:10;;;;;;;56.10;24.67;;;;;;;1.23;83.48;101090.87;1696323;82;25823;-77
2020/12/15 07:55:39;;;;;;;55.45;25.32;;;;;;;1.24;83.43;101085.97;1705270;82;25402;-77
2020/12/15 07:58:16;;;;;;;61.05;27.42;;;;;;;1.24;83.40;101082.02;1722834;82;26322;-78
2020/12/15 08:00:44;;;;;;;60.05;27.07;;;;;;;1.24;83.51;101078.88;1674925;82;26512;-77
2020/12/15 08:03:11;;;;;;;55.58;23.25;;;;;;;1.25;83.52;101088.95;1718196;82;27530;-79
2020/12/15 08:05:39;;;;;;;59.25;26.80;;;;;;;1.27;83.45;101098.45;1699422;82;25833;-77
2020/12/15 08:08:07;;;;;;;62.38;27.25;;;;;;;1.24;83.45;101097.34;1718588;82;25960;-78
2020/12/15 08:10:36;;;;;;;64.72;27.40;;;;;;;1.21;83.36;101098.06;1681473;82;25820;-77
2020/12/15 08:13:06;;;;;;;65.40;29.25;;;;;;;1.22;83.53;101091.84;1697313;82;25925;-78
2020/12/15 08:15:42;;;;;;;54.03;23.47;;;;;;;1.25;83.63;101096.88;1728993;82;28516;-78
2020/12/15 08:18:11;;;;;;;47.67;22.25;;;;;;;1.24;83.51;101102.62;1727996;82;26101;-76
2020/12/15 08:20:42;;;;;;;60.33;25.80;;;;;;;1.27;83.67;101105.52;1682405;82;25935;-77
2020/12/15 08:23:14;;;;;;;62.10;27.13;;;;;;;1.28;83.70;101104.57;1697222;82;33018;-77
2020/12/15 08:25:44;;;;;;;55.83;24.95;;;;;;;1.29;83.67;101100.48;1697774;82;25788;-77
2020/12/15 08:28:22;;;;;;;58.70;26.73;;;;;;;1.31;83.65;101106.95;1724883;82;28568;-77
2020/12/15 08:30:53;;;;;;;50.45;23.18;;;;;;;1.28;83.51;101104.57;1702381;82;26159;-78
2020/12/15 08:33:28;;;;;;;60.20;27.93;;;;;;;1.24;83.44;101107.89;1676501;82;25865;-78
2020/12/15 08:35:58;;;;;;;58.68;25.97;;;;;;;1.24;83.43;101111.85;1692315;82;25939;-77
2020/12/15 08:38:28;;;;;;;;;;;;;;;1.22;83.40;101105.03;1739446;81;25730;-77
2020/12/15 08:41:00;;;;;;;70.45;36.25;;;;;;;1.24;83.66;101102.62;1692570;81;28468;-78
2020/12/15 08:43:33;;;;;;;121.15;55.38;;;;;;;1.23;83.63;101100.95;1724269;81;25875;-77
2020/12/15 08:46:02;;;;;;;101.87;54.25;;;;;;;1.23;83.62;101102.27;1705524;81;25929;-78
2020/12/15 08:48:34;;;;;;;111.85;54.95;;;;;;;1.24;83.50;101101.30;1718146;81;25735;-78
2020/12/15 08:51:15;;;;;;;59.58;28.95;;;;;;;1.28;83.65;101111.17;1692449;83;26097;-78
2020/12/15 08:53:43;;;;;;;167.13;84.47;;;;;;;1.31;83.56;101110.92;1752356;80;28483;-77
2020/12/15 08:56:16;;;;;;;165.35;81.22;;;;;;;1.32;83.65;101116.11;1736958;80;25836;-77
2020/12/15 08:58:43;;;;;;;173.10;118.30;;;;;;;1.33;83.64;101113.81;1758649;80;25851;-78
2020/12/15 09:01:11;;;;;;;138.82;99.35;;;;;;;1.31;83.57;101113.09;1747972;81;25950;-78
2020/12/15 09:03:46;;;;;;;88.20;65.70;;;;;;;1.34;83.69;101119.94;1778827;80;26075;-77
2020/12/15 09:06:14;;;;;;;98.60;51.37;;;;;;;1.34;83.67;101122.11;1751923;80;27130;-78
2020/12/15 09:08:49;;;;;;;86.17;45.48;;;;;;;1.32;83.61;101117.89;1752233;80;25751;-77
2020/12/15 09:11:17;;;;;;;75.50;39.33;;;;;;;1.31;83.71;101118.36;1735643;80;25783;-77
2020/12/15 09:13:54;;;;;;;84.95;41.10;;;;;;;1.30;83.71;101121.13;1728808;80;25846;-78
2020/12/15 09:16:32;;;;;;;86.55;44.13;;;;;;;1.31;83.78;101118.36;1741077;81;26013;-78
2020/12/15 09:19:21;;;;;;;150.57;81.72;;;;;;;1.32;83.83;101116.58;1730621;80;27544;-76
2020/12/15 09:21:59;;;;;;;336.40;157.35;;;;;;;1.32;83.88;101109.50;1753464;80;26434;-77
2020/12/15 09:24:28;;;;;;;77.65;36.17;;;;;;;1.31;83.82;101109.13;1689926;83;26480;-77
2020/12/15 09:26:56;;;;;;;223.75;92.37;;;;;;;1.32;83.95;101109.50;1746925;80;25915;-78
2020/12/15 09:29:23;;;;;;;240.75;107.12;;;;;;;1.34;84.05;101104.95;1754829;80;25762;-78
2020/12/15 09:31:53;;;;;;;103.97;46.75;;;;;;;1.35;84.07;101105.30;1721946;80;27532;-78
2020/12/15 09:34:22;;;;;;;129.05;54.75;;;;;;;1.38;84.09;101105.08;1753397;80;26159;-77
2020/12/15 09:36:56;;;;;;;176.70;69.62;;;;;;;1.42;84.29;101103.04;1748635;80;25818;-77
2020/12/15 09:39:26;;;;;;;72.30;34.13;;;;;;;1.48;84.19;101099.45;1699250;82;26112;-77
2020/12/15 09:41:59;;;;;;;83.90;36.50;;;;;;;1.52;84.02;101096.09;1732529;80;25787;-78
2020/12/15 09:44:28;;;;;;;94.72;42.80;;;;;;;1.55;83.99;101099.83;1756047;80;27522;-78
2020/12/15 09:46:55;;;;;;;94.60;39.60;;;;;;;1.56;83.87;101091.78;1752629;80;25948;-76
2020/12/15 09:49:23;;;;;;;102.92;44.63;;;;;;;1.56;83.84;101094.93;1746030;80;25668;-78
2020/12/15 09:51:51;;;;;;;122.58;53.83;;;;;;;1.58;83.97;101091.69;1737181;80;25787;-77
2020/12/15 09:54:18;;;;;;;196.78;83.50;;;;;;;1.61;84.03;101088.80;1756029;80;26188;-77
2020/12/15 09:56:46;;;;;;;150.18;65.50;;;;;;;1.62;83.85;101093.13;1743409;80;28693;-77
2020/12/15 10:01:50;;;;;;;230.95;92.27;;;;;;;1.65;83.89;101088.92;1837593;77;25680;-78
2020/12/15 10:04:18;;;;;;;91.78;42.83;;;;;;;1.58;83.82;101086.41;1791778;79;25760;-78
2020/12/15 10:06:47;;;;;;;103.80;46.55;;;;;;;1.58;83.86;101081.13;1795368;79;28244;-78
2020/12/15 10:09:17;;;;;;;98.20;44.58;;;;;;;1.62;83.96;101076.45;1756023;79;25871;-76
2020/12/15 10:11:45;;;;;;;363.63;161.37;;;;;;;1.66;84.05;101072.61;1726664;80;25890;-77
2020/12/15 10:14:13;;;;;;;99.90;51.90;;;;;;;1.69;83.88;101073.20;1766183;79;25858;-77
2020/12/15 10:16:41;;;;;;;113.50;59.00;;;;;;;1.71;83.88;101066.50;1763925;78;26095;-77
2020/12/15 10:19:08;;;;;;;104.47;50.00;;;;;;;1.73;83.91;101066.75;1785949;79;27526;-78
2020/12/15 10:21:37;;;;;;;93.45;43.33;;;;;;;1.77;83.90;101064.70;1690630;80;25874;-77
2020/12/15 10:24:04;;;;;;;72.62;35.98;;;;;;;1.79;83.82;101070.23;1761794;80;25842;-77
2020/12/15 10:26:32;;;;;;;75.72;38.25;;;;;;;1.78;83.63;101069.00;1752939;80;25835;-77
2020/12/15 10:28:59;;;;;;;82.10;37.95;;;;;;;1.80;83.77;101063.13;1776762;80;26470;-77
2020/12/15 10:31:27;;;;;;;73.47;36.77;;;;;;;1.79;83.62;101066.73;1711304;80;28392;-77
2020/12/15 10:33:54;;;;;;;57.90;29.90;;;;;;;1.78;83.58;101063.72;1736221;80;25802;-77
2020/12/15 10:36:21;;;;;;;68.12;35.68;;;;;;;1.77;83.70;101057.63;1752228;80;25726;-77
2020/12/15 10:38:49;;;;;;;65.80;31.60;;;;;;;1.78;83.62;101061.08;1778577;79;25702;-77
2020/12/15 10:41:16;;;;;;;67.08;31.12;;;;;;;1.80;83.71;101065.77;1727439;80;25777;-77
2020/12/15 10:43:43;;;;;;;61.40;27.48;;;;;;;1.81;83.74;101056.89;1734206;80;28413;-76
2020/12/15 10:46:11;;;;;;;64.95;29.32;;;;;;;1.85;83.89;101051.73;1751669;80;25847;-78
2020/12/15 10:48:38;;;;;;;67.65;32.58;;;;;;;1.87;83.75;101044.52;1773918;80;25714;-78
2020/12/15 10:51:06;;;;;;;69.37;32.90;;;;;;;1.89;83.85;101045.23;1731653;80;26213;-78
2020/12/15 10:53:33;;;;;;;73.83;34.25;;;;;;;1.93;83.91;101040.07;1736366;80;25766;-77
2020/12/15 10:56:00;;;;;;;68.95;33.50;;;;;;;1.94;83.84;101036.02;1756293;80;27384;-78
2020/12/15 10:58:28;;;;;;;66.75;31.23;;;;;;;1.95;83.70;101035.03;1775557;80;26638;-78
2020/12/15 11:00:55;;;;;;;56.50;25.68;;;;;;;1.95;83.79;101038.15;1733478;80;25845;-77
2020/12/15 11:03:23;;;;;;;72.47;31.00;;;;;;;1.98;83.75;101033.95;1711300;80;25855;-78
2020/12/15 11:05:50;;;;;;;66.45;29.50;;;;;;;1.97;83.89;101034.91;1758082;80;25429;-78
2020/12/15 11:08:17;;;;;;;69.90;33.23;;;;;;;2.00;83.93;101030.23;1773824;80;27578;-77
2020/12/15 11:10:45;;;;;;;68.83;31.30;;;;;;;2.02;83.92;101021.70;1730174;80;25810;-78
2020/12/15 11:13:12;;;;;;;71.00;34.45;;;;;;;2.04;84.00;101022.89;1736297;80;25797;-77
2020/12/15 11:15:40;;;;;;;73.37;33.85;;;;;;;2.06;84.04;101021.81;1755560;79;25798;-78
2020/12/15 11:18:07;;;;;;;64.67;29.32;;;;;;;2.09;84.08;101022.06;1779241;80;26417;-77
2020/12/15 11:20:34;;;;;;;62.78;26.55;;;;;;;2.11;83.95;101024.09;1725736;80;26816;-78
2020/12/15 11:23:02;;;;;;;51.18;23.60;;;;;;;2.07;83.73;101021.34;1762903;80;25922;-77
2020/12/15 11:25:29;;;;;;;61.05;29.07;;;;;;;2.04;83.64;101022.42;1761008;80;26079;-77
2020/12/15 11:27:57;;;;;;;59.58;28.00;;;;;;;2.03;83.61;101027.84;1762169;80;26211;-80
2020/12/15 11:30:25;;;;;;;55.65;26.27;;;;;;;2.03;83.77;101021.23;1744868;80;25843;-76
2020/12/15 11:32:53;;;;;;;67.85;33.95;;;;;;;2.03;83.74;101026.01;1736736;80;27517;-77
2020/12/15 11:35:20;;;;;;;93.80;50.67;;;;;;;2.01;83.80;101022.66;1757896;80;26170;-77